createdAt,value
2023-04-23T00:01:51.266Z,99305.81
2023-04-23T00:04:21.762Z,99294.00
2023-04-23T00:06:48.983Z,99299.84
2023-04-23T00:09:23.102Z,99291.31
2023-04-23T00:11:56.534Z,99299.34
2023-04-23T00:14:26.737Z,99290.50
2023-04-23T00:17:03.286Z,99302.91
2023-04-23T00:19:37.731Z,99296.06
2023-04-23T00:22:30.005Z,99301.91
2023-04-23T00:28:22.312Z,99297.78
2023-04-23T00:30:57.275Z,99300.66
2023-04-23T00:33:38.602Z,99298.44
2023-04-23T00:36:12.566Z,99305.09
2023-04-23T00:39:01.543Z,99301.94
2023-04-23T00:41:58.425Z,99305.28
2023-04-23T00:44:33.152Z,99298.97
2023-04-23T00:47:16.814Z,99308.31
2023-04-23T00:49:56.603Z,99311.03
2023-04-23T00:52:36.182Z,99305.63
2023-04-23T00:55:06.531Z,99312.09
2023-04-23T00:57:51.744Z,99298.28
2023-04-23T01:00:27.457Z,99307.78
2023-04-23T01:03:00.667Z,99308.13
2023-04-23T01:05:28.929Z,99304.97
2023-04-23T01:08:05.530Z,99311.50
2023-04-23T01:10:33.993Z,99311.50
2023-04-23T01:13:01.613Z,99305.31
2023-04-23T01:15:35.675Z,99310.31
2023-04-23T01:18:12.537Z,99305.47
2023-04-23T01:20:43.218Z,99316.84
2023-04-23T01:23:10.871Z,99304.81
2023-04-23T01:25:41.218Z,99315.00
2023-04-23T01:28:08.624Z,99308.66
2023-04-23T01:30:36.452Z,99316.69
2023-04-23T01:33:06.684Z,99302.66
2023-04-23T01:35:36.471Z,99315.22
2023-04-23T01:38:09.496Z,99316.69
2023-04-23T01:40:38.867Z,99306.66
2023-04-23T01:43:07.278Z,99311.81
2023-04-23T01:45:34.492Z,99306.94
2023-04-23T01:48:01.633Z,99308.59
2023-04-23T01:50:31.001Z,99311.41
2023-04-23T01:52:58.292Z,99306.59
2023-04-23T01:55:27.681Z,99310.25
2023-04-23T01:58:00.242Z,99308.31
2023-04-23T02:00:33.034Z,99323.63
2023-04-23T02:03:03.631Z,99320.13
2023-04-23T02:05:36.653Z,99324.28
2023-04-23T02:08:09.449Z,99317.28
2023-04-23T02:10:39.504Z,99320.94
2023-04-23T02:13:06.613Z,99326.91
2023-04-23T02:15:34.187Z,99330.59
2023-04-23T02:18:01.417Z,99333.75
2023-04-23T02:20:28.335Z,99332.25
2023-04-23T02:22:56.358Z,99329.09
2023-04-23T02:25:26.644Z,99328.09
2023-04-23T02:27:53.556Z,99344.13
2023-04-23T02:30:20.747Z,99347.81
2023-04-23T02:32:47.692Z,99334.31
2023-04-23T02:35:17.277Z,99334.69
2023-04-23T02:37:44.468Z,99333.34
2023-04-23T02:40:12.028Z,99341.00
2023-04-23T02:42:39.526Z,99325.63
2023-04-23T02:45:07.723Z,99335.34
2023-04-23T02:47:41.594Z,99321.16
2023-04-23T02:50:09.074Z,99325.31
2023-04-23T02:52:38.812Z,99323.47
2023-04-23T02:55:07.336Z,99322.63
2023-04-23T02:57:35.679Z,99319.75
2023-04-23T03:00:06.963Z,99319.75
2023-04-23T03:02:39.538Z,99323.28
2023-04-23T03:05:07.533Z,99318.34
2023-04-23T03:07:34.463Z,99322.50
2023-04-23T03:10:01.486Z,99324.50
2023-04-23T03:12:28.840Z,99331.53
2023-04-23T03:14:55.858Z,99330.22
2023-04-23T03:17:25.513Z,99326.41
2023-04-23T03:19:52.700Z,99333.53
2023-04-23T03:22:20.453Z,99325.69
2023-04-23T03:24:47.331Z,99335.56
2023-04-23T03:27:15.106Z,99334.22
2023-04-23T03:29:42.016Z,99338.38
2023-04-23T03:32:09.155Z,99329.03
2023-04-23T03:34:36.104Z,99335.03
2023-04-23T03:37:03.140Z,99334.88
2023-04-23T03:39:33.211Z,99328.06
2023-04-23T03:42:00.338Z,99334.72
2023-04-23T03:44:30.266Z,99329.22
2023-04-23T03:46:58.618Z,99329.22
2023-04-23T03:49:26.930Z,99328.72
2023-04-23T03:51:56.054Z,99327.41
2023-04-23T03:54:25.940Z,99326.41
2023-04-23T03:57:12.195Z,99332.56
2023-04-23T03:59:50.970Z,99334.88
2023-04-23T04:02:21.767Z,99335.41
2023-04-23T04:04:55.125Z,99334.59
2023-04-23T04:07:24.490Z,99333.75
2023-04-23T04:09:51.367Z,99345.13
2023-04-23T04:12:18.330Z,99342.78
2023-04-23T04:14:46.023Z,99350.47
2023-04-23T04:17:15.904Z,99345.94
2023-04-23T04:19:43.171Z,99349.63
2023-04-23T04:22:10.235Z,99339.47
2023-04-23T04:24:37.843Z,99355.84
2023-04-23T04:27:07.939Z,99353.81
2023-04-23T04:29:41.072Z,99349.31
2023-04-23T04:32:09.316Z,99357.50
2023-04-23T04:34:50.167Z,99352.88
2023-04-23T04:37:21.727Z,99348.41
2023-04-23T04:40:11.624Z,99356.22
2023-04-23T04:42:53.215Z,99362.22
2023-04-23T04:45:31.712Z,99368.75
2023-04-23T04:48:01.505Z,99374.50
2023-04-23T04:50:41.091Z,99362.91
2023-04-23T04:53:10.975Z,99363.09
2023-04-23T04:55:47.444Z,99366.13
2023-04-23T04:58:15.159Z,99363.75
2023-04-23T05:01:03.295Z,99372.47
2023-04-23T05:03:48.794Z,99370.31
2023-04-23T05:06:29.419Z,99369.31
2023-04-23T05:09:19.755Z,99365.19
2023-04-23T05:11:56.330Z,99360.84
2023-04-23T05:14:26.673Z,99367.03
2023-04-23T05:16:59.246Z,99370.19
2023-04-23T05:19:33.054Z,99370.53
2023-04-23T05:22:11.822Z,99367.84
2023-04-23T05:24:55.230Z,99370.03
2023-04-23T05:27:30.999Z,99365.31
2023-04-23T05:30:13.922Z,99371.97
2023-04-23T05:33:07.276Z,99370.91
2023-04-23T05:35:49.416Z,99377.13
2023-04-23T05:38:31.510Z,99379.59
2023-04-23T05:41:09.162Z,99378.44
2023-04-23T05:43:56.721Z,99375.94
2023-04-23T05:46:29.205Z,99382.81
2023-04-23T05:48:59.509Z,99380.81
2023-04-23T05:51:29.792Z,99380.50
2023-04-23T05:54:05.886Z,99379.34
2023-04-23T05:56:36.316Z,99376.69
2023-04-23T05:59:17.357Z,99368.69
2023-04-23T06:02:03.597Z,99383.03
2023-04-23T06:04:35.477Z,99377.19
2023-04-23T06:07:04.404Z,99390.38
2023-04-23T06:09:32.943Z,99388.22
2023-04-23T06:12:06.094Z,99391.53
2023-04-23T06:14:41.333Z,99381.00
2023-04-23T06:17:18.006Z,99379.97
2023-04-23T06:19:50.788Z,99383.47
2023-04-23T06:22:28.275Z,99380.66
2023-04-23T06:25:22.030Z,99387.31
2023-04-23T06:28:20.256Z,99388.16
2023-04-23T06:31:10.315Z,99389.31
2023-04-23T06:33:38.985Z,99397.81
2023-04-23T06:36:11.489Z,99395.16
2023-04-23T06:38:41.389Z,99392.38
2023-04-23T06:41:08.658Z,99385.47
2023-04-23T06:43:35.604Z,99375.09
2023-04-23T06:46:24.047Z,99379.13
2023-04-23T06:48:54.854Z,99376.44
2023-04-23T06:51:26.506Z,99381.44
2023-04-23T06:53:55.023Z,99378.63
2023-04-23T06:56:30.127Z,99375.63
2023-04-23T06:59:03.394Z,99366.25
2023-04-23T07:01:35.751Z,99365.56
2023-04-23T07:04:06.076Z,99373.38
2023-04-23T07:06:43.336Z,99367.06
2023-04-23T07:09:27.160Z,99362.19
2023-04-23T07:12:12.332Z,99364.50
2023-04-23T07:14:53.918Z,99366.25
2023-04-23T07:17:35.481Z,99368.50
2023-04-23T07:20:32.838Z,99357.69
2023-04-23T07:23:25.574Z,99362.31
2023-04-23T07:26:10.994Z,99362.31
2023-04-23T07:28:49.714Z,99353.84
2023-04-23T07:31:28.496Z,99362.31
2023-04-23T07:34:01.751Z,99363.00
2023-04-23T07:36:42.350Z,99354.31
2023-04-23T07:39:20.474Z,99339.28
2023-04-23T07:41:51.476Z,99344.41
2023-04-23T07:47:25.600Z,99333.41
2023-04-23T07:50:14.424Z,99327.25
2023-04-23T08:00:13.949Z,99330.84
2023-04-23T08:03:10.716Z,99335.28
2023-04-23T08:09:12.279Z,99330.13
2023-04-23T08:12:01.633Z,99329.47
2023-04-23T08:14:31.751Z,99324.78
2023-04-23T08:17:19.752Z,99330.59
2023-04-23T08:19:56.591Z,99322.56
2023-04-23T08:22:44.460Z,99320.44
2023-04-23T08:25:17.634Z,99321.09
2023-04-23T08:27:48.648Z,99317.03
2023-04-23T08:30:26.021Z,99322.31
2023-04-23T08:33:11.419Z,99314.66
2023-04-23T08:36:58.784Z,99314.38
2023-04-23T08:40:06.447Z,99312.31
2023-04-23T08:46:27.759Z,99303.66
2023-04-23T08:47:49.515Z,99307.22
2023-04-23T08:50:42.722Z,99296.34
2023-04-23T08:53:24.176Z,99299.34
2023-04-23T08:56:07.811Z,99284.72
2023-04-23T08:59:43.975Z,99294.47
2023-04-23T09:07:02.200Z,99288.53
2023-04-23T09:10:20.334Z,99294.06
2023-04-23T09:14:52.663Z,99283.63
2023-04-23T09:24:49.377Z,99274.69
2023-04-23T09:27:29.034Z,99262.22
2023-04-23T09:37:01.189Z,99255.34
2023-04-23T09:39:27.926Z,99242.31
2023-04-23T09:41:54.684Z,99237.34
2023-04-23T09:44:26.405Z,99240.66
2023-04-23T09:46:53.219Z,99241.66
2023-04-23T09:49:19.987Z,99231.97
2023-04-23T09:51:48.338Z,99237.34
2023-04-23T09:54:16.646Z,99230.69
2023-04-23T09:56:43.452Z,99233.34
2023-04-23T09:59:46.087Z,99225.44
2023-04-23T10:02:15.612Z,99226.41
2023-04-23T10:04:42.652Z,99224.66
2023-04-23T10:09:43.521Z,99216.03
2023-04-23T10:12:27.894Z,99203.84
2023-04-23T10:14:59.605Z,99206.72
2023-04-23T10:17:26.693Z,99199.97
2023-04-23T10:19:54.543Z,99200.03
2023-04-23T10:22:21.795Z,99199.47
2023-04-23T10:24:52.514Z,99204.63
2023-04-23T10:29:51.089Z,99187.84
2023-04-23T10:32:18.201Z,99184.47
2023-04-23T10:34:45.601Z,99183.69
2023-04-23T10:37:12.952Z,99169.63
2023-04-23T10:39:41.017Z,99172.31
2023-04-23T10:42:07.730Z,99179.97
2023-04-23T10:47:12.459Z,99171.56
2023-04-23T10:49:39.413Z,99162.06
2023-04-23T10:52:21.492Z,99157.94
2023-04-23T10:54:56.760Z,99155.09
2023-04-23T10:57:23.393Z,99153.88
2023-04-23T10:59:56.152Z,99152.06
2023-04-23T11:02:25.968Z,99140.09
2023-04-23T11:04:57.539Z,99138.03
2023-04-23T11:07:31.726Z,99137.44
2023-04-23T11:10:14.436Z,99134.88
2023-04-23T11:12:41.353Z,99138.69
2023-04-23T11:15:16.172Z,99141.75
2023-04-23T11:17:47.303Z,99135.81
2023-04-23T11:20:21.633Z,99131.69
2023-04-23T11:22:50.348Z,99127.44
2023-04-23T11:25:24.806Z,99135.03
2023-04-23T11:27:53.221Z,99137.34
2023-04-23T11:30:25.786Z,99129.75
2023-04-23T11:32:54.132Z,99129.97
2023-04-23T11:35:23.001Z,99126.91
2023-04-23T11:37:49.735Z,99120.50
2023-04-23T11:40:21.000Z,99117.44
2023-04-23T11:42:49.691Z,99114.97
2023-04-23T11:45:21.078Z,99113.53
2023-04-23T11:47:50.586Z,99113.75
2023-04-23T11:50:21.381Z,99111.72
2023-04-23T11:52:48.438Z,99108.63
2023-04-23T11:55:19.382Z,99111.13
2023-04-23T11:57:48.069Z,99100.56
2023-04-23T12:00:18.832Z,99099.75
2023-04-23T12:02:56.145Z,99094.59
2023-04-23T12:05:23.797Z,99084.47
2023-04-23T12:07:53.350Z,99091.72
2023-04-23T12:10:21.301Z,99076.25
2023-04-23T12:12:52.363Z,99079.31
2023-04-23T12:15:19.810Z,99074.41
2023-04-23T12:17:51.203Z,99064.66
2023-04-23T12:20:21.884Z,99054.38
2023-04-23T12:22:48.826Z,99051.69
2023-04-23T12:25:15.900Z,99046.75
2023-04-23T12:27:44.599Z,99044.94
2023-04-23T12:30:12.042Z,99039.38
2023-04-23T12:32:38.953Z,99037.28
2023-04-23T12:35:06.632Z,99028.63
2023-04-23T12:37:36.598Z,99023.38
2023-04-23T12:40:07.118Z,99016.78
2023-04-23T12:42:34.452Z,99018.00
2023-04-23T12:45:09.034Z,99009.34
2023-04-23T12:47:35.684Z,99013.69
2023-04-23T12:50:03.872Z,98998.84
2023-04-23T12:52:31.064Z,99006.91
2023-04-23T12:55:00.487Z,98994.28
2023-04-23T12:57:27.663Z,99000.72
2023-04-23T12:59:55.004Z,98997.00
2023-04-23T13:02:22.805Z,98982.78
2023-04-23T13:04:49.573Z,98982.97
2023-04-23T13:07:16.280Z,98984.22
2023-04-23T13:09:43.341Z,98974.13
2023-04-23T13:12:10.572Z,98979.06
2023-04-23T13:14:37.258Z,98970.38
2023-04-23T13:17:03.963Z,98965.00
2023-04-23T13:19:31.566Z,98962.97
2023-04-23T13:21:58.371Z,98951.59
2023-04-23T13:24:25.530Z,98950.97
2023-04-23T13:26:52.279Z,98941.06
2023-04-23T13:29:19.040Z,98939.41
2023-04-23T13:31:45.795Z,98943.75
2023-04-23T13:34:12.530Z,98931.13
2023-04-23T13:36:41.521Z,98922.25
2023-04-23T13:39:09.022Z,98913.38
2023-04-23T13:41:35.774Z,98914.00
2023-04-23T13:44:02.427Z,98894.34
2023-04-23T13:46:29.199Z,98899.91
2023-04-23T13:48:56.297Z,98889.41
2023-04-23T13:51:34.797Z,98886.50
2023-04-23T13:54:02.733Z,98882.78
2023-04-23T13:56:30.512Z,98870.78
2023-04-23T13:59:11.600Z,98870.56
2023-04-23T14:01:47.054Z,98859.44
2023-04-23T14:04:13.991Z,98853.63
2023-04-23T14:06:40.651Z,98843.69
2023-04-23T14:09:07.362Z,98847.84
2023-04-23T14:11:34.086Z,98847.63
2023-04-23T14:14:01.233Z,98844.13
2023-04-23T14:16:28.072Z,98837.50
2023-04-23T14:18:54.854Z,98842.25
2023-04-23T14:21:22.151Z,98838.09
2023-04-23T14:23:48.739Z,98833.78
2023-04-23T14:26:48.644Z,98831.50
2023-04-23T14:29:18.996Z,98819.09
2023-04-23T14:31:45.774Z,98817.84
2023-04-23T14:34:12.504Z,98810.78
2023-04-23T14:36:39.220Z,98807.28
2023-04-23T14:39:05.921Z,98803.94
2023-04-23T14:41:32.954Z,98797.94
2023-04-23T14:44:02.681Z,98793.56
2023-04-23T14:46:29.402Z,98779.72
2023-04-23T14:48:56.134Z,98777.59
2023-04-23T14:51:23.212Z,98769.38
2023-04-23T14:53:50.962Z,98765.25
2023-04-23T14:56:17.704Z,98765.47
2023-04-23T14:58:44.370Z,98768.16
2023-04-23T15:01:11.373Z,98763.59
2023-04-23T15:03:38.134Z,98768.78
2023-04-23T15:06:06.834Z,98764.22
2023-04-23T15:08:33.833Z,98770.63
2023-04-23T15:11:00.735Z,98760.91
2023-04-23T15:14:01.333Z,98753.28
2023-04-23T15:16:46.640Z,98744.16
2023-04-23T15:19:17.535Z,98739.59
2023-04-23T15:21:44.604Z,98742.28
2023-04-23T15:24:11.368Z,98733.41
2023-04-23T15:26:38.400Z,98731.78
2023-04-23T15:29:08.717Z,98737.16
2023-04-23T15:31:38.998Z,98735.28
2023-04-23T15:34:08.368Z,98735.47
2023-04-23T15:36:35.674Z,98739.03
2023-04-23T15:39:02.389Z,98721.22
2023-04-23T15:41:29.058Z,98722.03
2023-04-23T15:43:56.468Z,98715.41
2023-04-23T15:46:23.137Z,98714.81
2023-04-23T15:48:49.812Z,98720.78
2023-04-23T15:51:16.601Z,98706.31
2023-04-23T15:53:43.351Z,98712.09
2023-04-23T15:56:10.046Z,98705.44
2023-04-23T15:58:36.823Z,98708.75
2023-04-23T16:01:05.361Z,98707.72
2023-04-23T16:03:32.542Z,98706.69
2023-04-23T16:05:59.586Z,98700.91
2023-04-23T16:08:26.421Z,98701.50
2023-04-23T16:10:53.554Z,98703.19
2023-04-23T16:13:20.311Z,98704.19
2023-04-23T16:15:47.192Z,98695.13
2023-04-23T16:18:13.936Z,98694.25
2023-04-23T16:20:41.180Z,98696.13
2023-04-23T16:23:07.845Z,98693.44
2023-04-23T16:25:34.599Z,98684.75
2023-04-23T16:28:01.352Z,98679.19
2023-04-23T16:30:28.108Z,98671.31
2023-04-23T16:32:54.818Z,98671.56
2023-04-23T16:35:21.712Z,98673.63
2023-04-23T16:37:48.361Z,98683.75
2023-04-23T16:40:19.144Z,98691.44
2023-04-23T16:42:48.379Z,98712.13
2023-04-23T16:45:15.205Z,98758.47
2023-04-23T16:47:43.553Z,98773.59
2023-04-23T16:50:10.864Z,98783.53
2023-04-23T16:52:37.581Z,98789.56
2023-04-23T16:55:05.577Z,98812.13
2023-04-23T16:57:32.842Z,98803.88
2023-04-23T16:59:59.733Z,98796.22
2023-04-23T17:02:26.707Z,98791.84
2023-04-23T17:04:53.632Z,98793.06
2023-04-23T17:07:20.615Z,98791.41
2023-04-23T17:09:47.260Z,98804.16
2023-04-23T17:12:14.121Z,98813.25
2023-04-23T17:14:41.512Z,98820.25
2023-04-23T17:17:08.398Z,98830.75
2023-04-23T17:19:35.112Z,98841.50
2023-04-23T17:22:02.164Z,98866.63
2023-04-23T17:24:28.879Z,98889.34
2023-04-23T17:26:56.376Z,98901.88
2023-04-23T17:29:23.147Z,98885.50
2023-04-23T17:31:50.218Z,98894.00
2023-04-23T17:34:16.922Z,98891.06
2023-04-23T17:36:43.658Z,98888.56
2023-04-23T17:39:10.393Z,98881.69
2023-04-23T17:41:37.146Z,98884.91
2023-04-23T17:44:03.875Z,98871.91
2023-04-23T17:46:30.584Z,98865.69
2023-04-23T17:48:57.356Z,98855.38
2023-04-23T17:51:24.175Z,98853.91
2023-04-23T17:53:51.855Z,98843.78
2023-04-23T17:56:18.592Z,98835.13
2023-04-23T17:58:45.376Z,98828.31
2023-04-23T18:01:12.395Z,98818.81
2023-04-23T18:03:39.318Z,98831.56
2023-04-23T18:06:08.453Z,98825.16
2023-04-23T18:08:36.045Z,98820.97
2023-04-23T18:11:03.518Z,98818.94
2023-04-23T18:13:30.294Z,98820.53
2023-04-23T18:15:56.988Z,98820.97
2023-04-23T18:18:24.381Z,98824.22
2023-04-23T18:20:52.027Z,98822.75
2023-04-23T18:23:22.075Z,98821.28
2023-04-23T18:25:49.063Z,98829.72
2023-04-23T18:28:16.057Z,98825.75
2023-04-23T18:30:42.800Z,98823.69
2023-04-23T18:33:15.302Z,98825.78
2023-04-23T18:35:43.346Z,98826.59
2023-04-23T18:38:11.021Z,98821.69
2023-04-23T18:40:37.760Z,98824.75
2023-04-23T18:43:04.531Z,98828.13
2023-04-23T18:45:31.564Z,98827.69
2023-04-23T18:48:04.169Z,98829.91
2023-04-23T18:50:37.710Z,98833.50
2023-04-23T18:53:04.918Z,98840.56
2023-04-23T18:55:31.806Z,98844.44
2023-04-23T18:57:58.985Z,98846.94
2023-04-23T19:00:26.069Z,98842.16
2023-04-23T19:02:53.057Z,98844.97
2023-04-23T19:05:19.949Z,98849.81
2023-04-23T19:07:48.363Z,98852.53
2023-04-23T19:10:16.407Z,98856.63
2023-04-23T19:12:46.410Z,98860.50
2023-04-23T19:15:14.990Z,98852.97
2023-04-23T19:17:42.008Z,98852.91
2023-04-23T19:20:11.065Z,98848.72
2023-04-23T19:22:41.226Z,98850.50
2023-04-23T19:25:09.441Z,98848.25
2023-04-23T19:27:36.378Z,98858.78
2023-04-23T19:30:05.382Z,98853.81
2023-04-23T19:32:35.458Z,98865.72
2023-04-23T19:35:04.493Z,98866.72
2023-04-23T19:37:32.150Z,98868.94
2023-04-23T19:39:59.432Z,98871.63
2023-04-23T19:42:26.393Z,98869.22
2023-04-23T19:44:53.141Z,98877.16
2023-04-23T19:47:19.826Z,98868.38
2023-04-23T19:49:46.906Z,98872.06
2023-04-23T19:52:17.623Z,98859.38
2023-04-23T19:54:48.953Z,98840.28
2023-04-23T19:57:18.340Z,98822.69
2023-04-23T19:59:48.626Z,98826.34
2023-04-23T20:02:16.714Z,98844.50
2023-04-23T20:04:44.316Z,98841.00
2023-04-23T20:07:11.895Z,98853.44
2023-04-23T20:09:39.474Z,98848.06
2023-04-23T20:12:07.070Z,98849.16
2023-04-23T20:14:33.793Z,98852.00
2023-04-23T20:17:00.714Z,98857.31
2023-04-23T20:19:27.625Z,98870.47
2023-04-23T20:21:54.689Z,98877.88
2023-04-23T20:24:21.758Z,98878.44
2023-04-23T20:26:48.714Z,98884.63
2023-04-23T20:29:15.866Z,98886.94
2023-04-23T20:31:42.718Z,98889.16
2023-04-23T20:34:10.936Z,98897.19
2023-04-23T20:36:39.177Z,98903.81
2023-04-23T20:39:06.090Z,98903.72
2023-04-23T20:41:36.712Z,98903.34
2023-04-23T20:44:05.251Z,98908.91
2023-04-23T20:46:32.741Z,98910.28
2023-04-23T20:49:03.224Z,98903.47
2023-04-23T20:51:33.165Z,98902.47
2023-04-23T20:54:00.659Z,98903.56
2023-04-23T20:56:28.086Z,98912.06
2023-04-23T20:58:54.994Z,98918.00
2023-04-23T21:01:21.841Z,98913.00
2023-04-23T21:03:49.450Z,98911.13
2023-04-23T21:06:16.653Z,98912.16
2023-04-23T21:08:43.676Z,98913.78
2023-04-23T21:11:13.592Z,98913.16
2023-04-23T21:13:40.758Z,98911.88
2023-04-23T21:16:07.921Z,98912.81
2023-04-23T21:18:34.962Z,98911.09
2023-04-23T21:21:01.963Z,98905.91
2023-04-23T21:23:28.798Z,98910.81
2023-04-23T21:25:55.910Z,98909.34
2023-04-23T21:28:23.403Z,98908.69
2023-04-23T21:30:52.083Z,98922.19
2023-04-23T21:33:20.293Z,98910.84
2023-04-23T21:35:47.807Z,98910.00
2023-04-23T21:38:14.745Z,98914.06
2023-04-23T21:40:41.659Z,98907.72
2023-04-23T21:43:08.472Z,98895.91
2023-04-23T21:45:35.254Z,98905.97
2023-04-23T21:48:02.403Z,98916.47
2023-04-23T21:50:30.815Z,98912.78
2023-04-23T21:53:03.025Z,98907.91
2023-04-23T21:55:31.424Z,98908.09
2023-04-23T21:58:09.791Z,98911.69
2023-04-23T22:00:44.931Z,98914.38
2023-04-23T22:03:12.753Z,98919.59
2023-04-23T22:05:45.761Z,98918.09
2023-04-23T22:08:12.449Z,98918.00
2023-04-23T22:10:43.101Z,98917.81
2023-04-23T22:13:11.052Z,98919.75
2023-04-23T22:15:38.364Z,98921.22
2023-04-23T22:18:05.553Z,98924.25
2023-04-23T22:20:32.738Z,98925.44
2023-04-23T22:22:59.417Z,98927.81
2023-04-23T22:25:26.150Z,98927.22
2023-04-23T22:27:52.846Z,98921.66
2023-04-23T22:30:19.680Z,98921.88
2023-04-23T22:32:46.409Z,98920.03
2023-04-23T22:35:13.244Z,98926.84
2023-04-23T22:37:40.209Z,98922.84
2023-04-23T22:40:10.378Z,98920.56
2023-04-23T22:42:37.824Z,98913.66
2023-04-23T22:45:06.142Z,98898.16
2023-04-23T22:47:32.947Z,98900.38
2023-04-23T22:49:59.724Z,98906.47
2023-04-23T22:52:32.659Z,98903.81
2023-04-23T22:55:04.132Z,98911.59
2023-04-23T22:57:31.118Z,98919.16
2023-04-23T22:59:57.889Z,98920.34
2023-04-23T23:02:26.832Z,98913.63
2023-04-23T23:04:53.634Z,98914.47
2023-04-23T23:07:21.035Z,98920.16
2023-04-23T23:09:47.777Z,98912.78
2023-04-23T23:12:14.639Z,98913.16
2023-04-23T23:14:41.455Z,98921.19
2023-04-23T23:17:08.155Z,98919.16
2023-04-23T23:19:34.860Z,98924.00
2023-04-23T23:22:01.543Z,98925.31
2023-04-23T23:24:28.287Z,98918.50
2023-04-23T23:26:54.983Z,98920.72
2023-04-23T23:29:21.865Z,98903.22
2023-04-23T23:31:48.900Z,98901.75
2023-04-23T23:34:15.647Z,98904.50
2023-04-23T23:36:44.930Z,98907.66
2023-04-23T23:39:12.709Z,98902.50
2023-04-23T23:41:39.456Z,98898.34
2023-04-23T23:44:06.506Z,98899.91
2023-04-23T23:46:33.498Z,98896.50
2023-04-23T23:49:00.464Z,98893.38
2023-04-23T23:51:28.256Z,98895.91
2023-04-23T23:53:55.170Z,98890.03
2023-04-23T23:56:22.178Z,98888.28
2023-04-23T23:58:48.926Z,98876.94
